sensor_id;sensor_type;location;lat;lon;timestamp;temperature;humidity
21246;DHT22;10781;50.928;4.440;2023-08-24T00:01:07;23.10;99.90
21246;DHT22;10781;50.928;4.440;2023-08-24T00:03:34;23.20;99.90
21246;DHT22;10781;50.928;4.440;2023-08-24T00:06:00;23.30;99.90
21246;DHT22;10781;50.928;4.440;2023-08-24T00:08:26;23.30;99.90
21246;DHT22;10781;50.928;4.440;2023-08-24T00:10:52;23.20;99.90
21246;DHT22;10781;50.928;4.440;2023-08-24T00:13:18;23.10;99.90
21246;DHT22;10781;50.928;4.440;2023-08-24T00:15:45;23.10;99.90
21246;DHT22;10781;50.928;4.440;2023-08-24T00:18:11;23.10;99.90
21246;DHT22;10781;50.928;4.440;2023-08-24T00:20:36;22.80;99.90
21246;DHT22;10781;50.928;4.440;2023-08-24T00:23:03;22.60;99.90
21246;DHT22;10781;50.928;4.440;2023-08-24T00:25:30;22.70;99.90
21246;DHT22;10781;50.928;4.440;2023-08-24T00:27:56;22.90;99.90
21246;DHT22;10781;50.928;4.440;2023-08-24T00:30:22;22.90;99.90
21246;DHT22;10781;50.928;4.440;2023-08-24T00:32:48;22.80;99.90
21246;DHT22;10781;50.928;4.440;2023-08-24T00:35:14;22.70;99.90
21246;DHT22;10781;50.928;4.440;2023-08-24T00:37:40;22.80;99.90
21246;DHT22;10781;50.928;4.440;2023-08-24T00:40:07;23.00;99.90
21246;DHT22;10781;50.928;4.440;2023-08-24T00:42:42;23.10;99.90
21246;DHT22;10781;50.928;4.440;2023-08-24T00:45:10;23.00;99.90
21246;DHT22;10781;50.928;4.440;2023-08-24T00:47:46;22.80;99.90
21246;DHT22;10781;50.928;4.440;2023-08-24T00:50:13;22.50;99.90
21246;DHT22;10781;50.928;4.440;2023-08-24T00:52:40;22.40;99.90
21246;DHT22;10781;50.928;4.440;2023-08-24T00:55:07;22.30;99.90
21246;DHT22;10781;50.928;4.440;2023-08-24T00:57:33;22.40;99.90
21246;DHT22;10781;50.928;4.440;2023-08-24T01:00:02;22.70;99.90
21246;DHT22;10781;50.928;4.440;2023-08-24T01:02:30;22.90;99.90
21246;DHT22;10781;50.928;4.440;2023-08-24T01:04:56;23.10;99.90
21246;DHT22;10781;50.928;4.440;2023-08-24T01:07:22;23.00;99.90
21246;DHT22;10781;50.928;4.440;2023-08-24T01:09:48;22.90;99.90
21246;DHT22;10781;50.928;4.440;2023-08-24T01:17:30;22.80;99.90
21246;DHT22;10781;50.928;4.440;2023-08-24T01:19:58;22.60;99.90
21246;DHT22;10781;50.928;4.440;2023-08-24T01:25:00;22.40;99.90
21246;DHT22;10781;50.928;4.440;2023-08-24T01:27:26;22.40;99.90
21246;DHT22;10781;50.928;4.440;2023-08-24T01:29:53;22.40;99.90
21246;DHT22;10781;50.928;4.440;2023-08-24T01:32:22;22.30;99.90
21246;DHT22;10781;50.928;4.440;2023-08-24T01:34:48;22.20;99.90
21246;DHT22;10781;50.928;4.440;2023-08-24T01:37:14;22.10;99.90
21246;DHT22;10781;50.928;4.440;2023-08-24T01:39:46;22.30;99.90
21246;DHT22;10781;50.928;4.440;2023-08-24T01:42:18;22.20;99.90
21246;DHT22;10781;50.928;4.440;2023-08-24T01:44:49;22.30;99.90
21246;DHT22;10781;50.928;4.440;2023-08-24T01:47:16;22.20;99.90
21246;DHT22;10781;50.928;4.440;2023-08-24T01:49:43;22.50;99.90
21246;DHT22;10781;50.928;4.440;2023-08-24T01:52:09;22.70;99.90
21246;DHT22;10781;50.928;4.440;2023-08-24T01:54:35;22.80;99.90
21246;DHT22;10781;50.928;4.440;2023-08-24T01:57:04;23.00;99.90
21246;DHT22;10781;50.928;4.440;2023-08-24T01:59:29;23.10;99.90
21246;DHT22;10781;50.928;4.440;2023-08-24T02:01:55;23.20;99.90
21246;DHT22;10781;50.928;4.440;2023-08-24T02:04:20;23.10;99.90
21246;DHT22;10781;50.928;4.440;2023-08-24T02:06:46;22.90;99.90
21246;DHT22;10781;50.928;4.440;2023-08-24T02:09:11;23.00;99.90
21246;DHT22;10781;50.928;4.440;2023-08-24T02:11:37;22.60;99.90
21246;DHT22;10781;50.928;4.440;2023-08-24T02:14:03;22.20;99.90
21246;DHT22;10781;50.928;4.440;2023-08-24T02:16:28;22.00;99.90
21246;DHT22;10781;50.928;4.440;2023-08-24T02:18:54;21.80;99.90
21246;DHT22;10781;50.928;4.440;2023-08-24T02:21:19;21.50;99.90
21246;DHT22;10781;50.928;4.440;2023-08-24T02:23:45;21.00;99.90
21246;DHT22;10781;50.928;4.440;2023-08-24T02:26:11;20.90;99.90
21246;DHT22;10781;50.928;4.440;2023-08-24T02:28:37;20.70;99.90
21246;DHT22;10781;50.928;4.440;2023-08-24T02:31:03;20.40;99.90
21246;DHT22;10781;50.928;4.440;2023-08-24T02:33:31;20.30;99.90
21246;DHT22;10781;50.928;4.440;2023-08-24T02:35:56;20.10;99.90
21246;DHT22;10781;50.928;4.440;2023-08-24T02:38:23;20.10;99.90
21246;DHT22;10781;50.928;4.440;2023-08-24T02:40:49;20.10;99.90
21246;DHT22;10781;50.928;4.440;2023-08-24T02:43:15;20.20;99.90
21246;DHT22;10781;50.928;4.440;2023-08-24T02:45:40;20.40;99.90
21246;DHT22;10781;50.928;4.440;2023-08-24T02:48:06;20.50;99.90
21246;DHT22;10781;50.928;4.440;2023-08-24T02:50:31;20.80;99.90
21246;DHT22;10781;50.928;4.440;2023-08-24T02:52:57;21.00;99.90
21246;DHT22;10781;50.928;4.440;2023-08-24T02:55:27;20.90;99.90
21246;DHT22;10781;50.928;4.440;2023-08-24T02:57:52;20.90;99.90
21246;DHT22;10781;50.928;4.440;2023-08-24T03:00:18;20.90;99.90
21246;DHT22;10781;50.928;4.440;2023-08-24T03:02:44;20.70;99.90
21246;DHT22;10781;50.928;4.440;2023-08-24T03:05:09;20.70;99.90
21246;DHT22;10781;50.928;4.440;2023-08-24T03:07:35;20.70;99.90
21246;DHT22;10781;50.928;4.440;2023-08-24T03:10:01;20.50;99.90
21246;DHT22;10781;50.928;4.440;2023-08-24T03:12:26;20.40;99.90
21246;DHT22;10781;50.928;4.440;2023-08-24T03:14:52;20.30;99.90
21246;DHT22;10781;50.928;4.440;2023-08-24T03:17:20;20.40;99.90
21246;DHT22;10781;50.928;4.440;2023-08-24T03:19:46;20.70;99.90
21246;DHT22;10781;50.928;4.440;2023-08-24T03:22:12;20.90;99.90
21246;DHT22;10781;50.928;4.440;2023-08-24T03:24:37;21.20;99.90
21246;DHT22;10781;50.928;4.440;2023-08-24T03:27:03;21.10;99.90
21246;DHT22;10781;50.928;4.440;2023-08-24T03:29:28;21.00;99.90
21246;DHT22;10781;50.928;4.440;2023-08-24T03:31:54;20.80;99.90
21246;DHT22;10781;50.928;4.440;2023-08-24T03:34:20;20.60;99.90
21246;DHT22;10781;50.928;4.440;2023-08-24T03:36:46;20.40;99.90
21246;DHT22;10781;50.928;4.440;2023-08-24T03:39:13;20.60;99.90
21246;DHT22;10781;50.928;4.440;2023-08-24T03:41:41;20.80;99.90
21246;DHT22;10781;50.928;4.440;2023-08-24T03:44:06;21.10;99.90
21246;DHT22;10781;50.928;4.440;2023-08-24T03:46:32;21.10;99.90
21246;DHT22;10781;50.928;4.440;2023-08-24T03:48:57;21.20;99.90
21246;DHT22;10781;50.928;4.440;2023-08-24T03:51:23;21.40;99.90
21246;DHT22;10781;50.928;4.440;2023-08-24T03:53:49;21.30;99.90
21246;DHT22;10781;50.928;4.440;2023-08-24T03:56:14;21.00;99.90
21246;DHT22;10781;50.928;4.440;2023-08-24T03:58:40;21.00;99.90
21246;DHT22;10781;50.928;4.440;2023-08-24T04:01:10;21.10;99.90
21246;DHT22;10781;50.928;4.440;2023-08-24T04:03:36;21.40;99.90
21246;DHT22;10781;50.928;4.440;2023-08-24T04:06:02;21.40;99.90
21246;DHT22;10781;50.928;4.440;2023-08-24T04:08:27;21.50;99.90
21246;DHT22;10781;50.928;4.440;2023-08-24T04:10:53;21.40;99.90
21246;DHT22;10781;50.928;4.440;2023-08-24T04:13:19;21.40;99.90
21246;DHT22;10781;50.928;4.440;2023-08-24T04:15:44;21.30;99.90
21246;DHT22;10781;50.928;4.440;2023-08-24T04:18:10;21.20;99.90
21246;DHT22;10781;50.928;4.440;2023-08-24T04:20:36;21.20;99.90
21246;DHT22;10781;50.928;4.440;2023-08-24T04:23:02;21.20;99.90
21246;DHT22;10781;50.928;4.440;2023-08-24T04:25:28;21.20;99.90
21246;DHT22;10781;50.928;4.440;2023-08-24T04:27:54;21.10;99.90
21246;DHT22;10781;50.928;4.440;2023-08-24T04:30:20;21.20;99.90
21246;DHT22;10781;50.928;4.440;2023-08-24T04:32:47;21.20;99.90
21246;DHT22;10781;50.928;4.440;2023-08-24T04:35:13;21.30;99.90
21246;DHT22;10781;50.928;4.440;2023-08-24T04:37:38;21.20;99.90
21246;DHT22;10781;50.928;4.440;2023-08-24T04:40:05;21.10;99.90
21246;DHT22;10781;50.928;4.440;2023-08-24T04:42:33;21.00;99.90
21246;DHT22;10781;50.928;4.440;2023-08-24T04:44:58;20.80;99.90
21246;DHT22;10781;50.928;4.440;2023-08-24T04:47:24;21.00;99.90
21246;DHT22;10781;50.928;4.440;2023-08-24T04:49:49;20.90;99.90
21246;DHT22;10781;50.928;4.440;2023-08-24T04:52:15;20.70;99.90
21246;DHT22;10781;50.928;4.440;2023-08-24T04:54:41;20.90;99.90
21246;DHT22;10781;50.928;4.440;2023-08-24T04:57:06;21.10;99.90
21246;DHT22;10781;50.928;4.440;2023-08-24T04:59:32;21.10;99.90
21246;DHT22;10781;50.928;4.440;2023-08-24T05:01:58;21.00;99.90
21246;DHT22;10781;50.928;4.440;2023-08-24T05:04:24;20.90;99.90
21246;DHT22;10781;50.928;4.440;2023-08-24T05:06:50;20.30;99.90
21246;DHT22;10781;50.928;4.440;2023-08-24T05:09:15;20.00;99.90
21246;DHT22;10781;50.928;4.440;2023-08-24T05:11:41;19.90;99.90
21246;DHT22;10781;50.928;4.440;2023-08-24T05:14:07;20.20;99.90
21246;DHT22;10781;50.928;4.440;2023-08-24T05:16:32;20.50;99.90
21246;DHT22;10781;50.928;4.440;2023-08-24T05:18:58;20.80;99.90
21246;DHT22;10781;50.928;4.440;2023-08-24T05:21:24;20.80;99.90
21246;DHT22;10781;50.928;4.440;2023-08-24T05:23:49;21.00;99.90
21246;DHT22;10781;50.928;4.440;2023-08-24T05:26:15;21.10;99.90
21246;DHT22;10781;50.928;4.440;2023-08-24T05:28:47;21.10;99.90
21246;DHT22;10781;50.928;4.440;2023-08-24T05:31:13;21.20;99.90
21246;DHT22;10781;50.928;4.440;2023-08-24T05:33:39;21.10;99.90
21246;DHT22;10781;50.928;4.440;2023-08-24T05:36:04;21.00;99.90
21246;DHT22;10781;50.928;4.440;2023-08-24T05:38:30;21.10;99.90
21246;DHT22;10781;50.928;4.440;2023-08-24T05:40:56;21.30;99.90
21246;DHT22;10781;50.928;4.440;2023-08-24T05:43:21;21.50;99.90
21246;DHT22;10781;50.928;4.440;2023-08-24T05:45:48;21.70;99.90
21246;DHT22;10781;50.928;4.440;2023-08-24T05:48:14;21.50;99.90
21246;DHT22;10781;50.928;4.440;2023-08-24T05:50:46;21.20;99.90
21246;DHT22;10781;50.928;4.440;2023-08-24T05:53:12;21.00;99.90
21246;DHT22;10781;50.928;4.440;2023-08-24T05:55:38;20.90;99.90
21246;DHT22;10781;50.928;4.440;2023-08-24T05:58:04;20.80;99.90
21246;DHT22;10781;50.928;4.440;2023-08-24T06:00:29;21.00;99.90
21246;DHT22;10781;50.928;4.440;2023-08-24T06:02:55;21.10;99.90
21246;DHT22;10781;50.928;4.440;2023-08-24T06:05:21;21.10;99.90
21246;DHT22;10781;50.928;4.440;2023-08-24T06:07:47;21.10;99.90
21246;DHT22;10781;50.928;4.440;2023-08-24T06:10:13;21.00;99.90
21246;DHT22;10781;50.928;4.440;2023-08-24T06:12:39;21.00;99.90
21246;DHT22;10781;50.928;4.440;2023-08-24T06:15:05;20.90;99.90
21246;DHT22;10781;50.928;4.440;2023-08-24T06:17:33;21.00;99.90
21246;DHT22;10781;50.928;4.440;2023-08-24T06:20:02;21.00;99.90
21246;DHT22;10781;50.928;4.440;2023-08-24T06:22:29;21.00;99.90
21246;DHT22;10781;50.928;4.440;2023-08-24T06:24:54;21.10;99.90
21246;DHT22;10781;50.928;4.440;2023-08-24T06:27:25;21.20;99.90
21246;DHT22;10781;50.928;4.440;2023-08-24T06:29:50;21.30;99.90
21246;DHT22;10781;50.928;4.440;2023-08-24T06:32:16;22.20;99.90
21246;DHT22;10781;50.928;4.440;2023-08-24T06:34:42;23.50;99.90
21246;DHT22;10781;50.928;4.440;2023-08-24T06:37:07;24.40;99.90
21246;DHT22;10781;50.928;4.440;2023-08-24T06:39:33;25.50;99.90
21246;DHT22;10781;50.928;4.440;2023-08-24T06:41:58;26.30;99.90
21246;DHT22;10781;50.928;4.440;2023-08-24T06:44:24;26.80;99.90
21246;DHT22;10781;50.928;4.440;2023-08-24T06:46:50;26.60;99.90
21246;DHT22;10781;50.928;4.440;2023-08-24T06:49:15;26.50;99.90
21246;DHT22;10781;50.928;4.440;2023-08-24T06:51:41;26.40;99.90
21246;DHT22;10781;50.928;4.440;2023-08-24T06:54:07;26.30;99.90
21246;DHT22;10781;50.928;4.440;2023-08-24T06:56:32;26.20;99.90
21246;DHT22;10781;50.928;4.440;2023-08-24T06:58:58;26.30;99.90
21246;DHT22;10781;50.928;4.440;2023-08-24T07:01:23;26.60;99.90
21246;DHT22;10781;50.928;4.440;2023-08-24T07:03:51;26.10;99.90
21246;DHT22;10781;50.928;4.440;2023-08-24T07:06:16;26.20;99.90
21246;DHT22;10781;50.928;4.440;2023-08-24T07:08:42;26.30;99.90
21246;DHT22;10781;50.928;4.440;2023-08-24T07:11:08;26.80;99.90
21246;DHT22;10781;50.928;4.440;2023-08-24T07:13:33;27.30;99.90
21246;DHT22;10781;50.928;4.440;2023-08-24T07:16:00;28.00;99.90
21246;DHT22;10781;50.928;4.440;2023-08-24T07:18:26;28.10;99.90
21246;DHT22;10781;50.928;4.440;2023-08-24T07:20:52;28.10;99.90
21246;DHT22;10781;50.928;4.440;2023-08-24T07:23:17;28.60;99.90
21246;DHT22;10781;50.928;4.440;2023-08-24T07:25:43;28.90;99.90
21246;DHT22;10781;50.928;4.440;2023-08-24T07:28:09;29.00;99.90
21246;DHT22;10781;50.928;4.440;2023-08-24T07:30:35;28.90;99.90
21246;DHT22;10781;50.928;4.440;2023-08-24T07:33:02;28.80;99.90
21246;DHT22;10781;50.928;4.440;2023-08-24T07:35:31;28.30;99.90
21246;DHT22;10781;50.928;4.440;2023-08-24T07:37:57;28.00;99.90
21246;DHT22;10781;50.928;4.440;2023-08-24T07:40:23;27.30;99.90
21246;DHT22;10781;50.928;4.440;2023-08-24T07:42:51;26.90;99.90
21246;DHT22;10781;50.928;4.440;2023-08-24T07:45:18;26.60;99.90
21246;DHT22;10781;50.928;4.440;2023-08-24T07:47:44;26.10;99.90
21246;DHT22;10781;50.928;4.440;2023-08-24T07:50:11;26.10;99.90
21246;DHT22;10781;50.928;4.440;2023-08-24T07:52:39;26.40;99.90
21246;DHT22;10781;50.928;4.440;2023-08-24T07:55:06;26.40;99.90
21246;DHT22;10781;50.928;4.440;2023-08-24T07:57:36;26.10;99.90
21246;DHT22;10781;50.928;4.440;2023-08-24T08:00:03;26.40;99.90
21246;DHT22;10781;50.928;4.440;2023-08-24T08:02:29;26.40;99.90
21246;DHT22;10781;50.928;4.440;2023-08-24T08:04:58;26.30;99.90
21246;DHT22;10781;50.928;4.440;2023-08-24T08:07:28;26.40;99.90
21246;DHT22;10781;50.928;4.440;2023-08-24T08:09:54;26.10;99.90
21246;DHT22;10781;50.928;4.440;2023-08-24T08:12:19;26.00;99.90
21246;DHT22;10781;50.928;4.440;2023-08-24T08:14:45;26.30;99.90
21246;DHT22;10781;50.928;4.440;2023-08-24T08:17:11;26.10;99.90
21246;DHT22;10781;50.928;4.440;2023-08-24T08:19:37;25.80;99.90
21246;DHT22;10781;50.928;4.440;2023-08-24T08:22:04;25.70;99.90
21246;DHT22;10781;50.928;4.440;2023-08-24T08:24:29;25.50;99.90
21246;DHT22;10781;50.928;4.440;2023-08-24T08:26:55;25.70;99.90
21246;DHT22;10781;50.928;4.440;2023-08-24T08:29:21;25.80;99.90
21246;DHT22;10781;50.928;4.440;2023-08-24T08:31:47;25.90;99.90
21246;DHT22;10781;50.928;4.440;2023-08-24T08:34:12;25.70;99.90
21246;DHT22;10781;50.928;4.440;2023-08-24T08:36:38;25.70;99.90
21246;DHT22;10781;50.928;4.440;2023-08-24T08:39:04;25.50;99.90
21246;DHT22;10781;50.928;4.440;2023-08-24T08:41:33;25.60;99.90
21246;DHT22;10781;50.928;4.440;2023-08-24T08:44:05;25.80;99.90
21246;DHT22;10781;50.928;4.440;2023-08-24T08:46:32;26.20;99.90
21246;DHT22;10781;50.928;4.440;2023-08-24T08:49:00;26.40;99.90
21246;DHT22;10781;50.928;4.440;2023-08-24T08:51:27;26.40;99.90
21246;DHT22;10781;50.928;4.440;2023-08-24T08:53:53;26.60;99.90
21246;DHT22;10781;50.928;4.440;2023-08-24T08:56:19;27.00;99.90
21246;DHT22;10781;50.928;4.440;2023-08-24T08:58:45;27.20;99.90
21246;DHT22;10781;50.928;4.440;2023-08-24T09:01:12;27.50;99.90
21246;DHT22;10781;50.928;4.440;2023-08-24T09:03:39;28.00;99.90
21246;DHT22;10781;50.928;4.440;2023-08-24T09:06:05;28.30;99.90
21246;DHT22;10781;50.928;4.440;2023-08-24T09:08:31;28.60;99.90
21246;DHT22;10781;50.928;4.440;2023-08-24T09:10:58;28.60;99.90
21246;DHT22;10781;50.928;4.440;2023-08-24T09:13:25;28.50;99.90
21246;DHT22;10781;50.928;4.440;2023-08-24T09:15:52;28.50;99.90
21246;DHT22;10781;50.928;4.440;2023-08-24T09:18:20;28.20;99.90
21246;DHT22;10781;50.928;4.440;2023-08-24T09:20:47;27.80;99.90
21246;DHT22;10781;50.928;4.440;2023-08-24T09:23:19;27.60;99.90
21246;DHT22;10781;50.928;4.440;2023-08-24T09:25:46;27.70;99.90
21246;DHT22;10781;50.928;4.440;2023-08-24T09:28:13;27.80;99.90
21246;DHT22;10781;50.928;4.440;2023-08-24T09:30:39;27.80;99.90
21246;DHT22;10781;50.928;4.440;2023-08-24T09:33:09;27.80;99.90
21246;DHT22;10781;50.928;4.440;2023-08-24T09:35:36;27.40;99.90
21246;DHT22;10781;50.928;4.440;2023-08-24T09:38:22;27.00;99.90
21246;DHT22;10781;50.928;4.440;2023-08-24T09:40:52;26.10;99.90
21246;DHT22;10781;50.928;4.440;2023-08-24T09:43:18;25.50;99.90
21246;DHT22;10781;50.928;4.440;2023-08-24T09:45:54;24.70;99.90
21246;DHT22;10781;50.928;4.440;2023-08-24T09:48:21;24.30;99.90
21246;DHT22;10781;50.928;4.440;2023-08-24T09:50:50;24.10;99.90
21246;DHT22;10781;50.928;4.440;2023-08-24T09:53:27;23.30;99.90
21246;DHT22;10781;50.928;4.440;2023-08-24T09:55:58;22.90;99.90
21246;DHT22;10781;50.928;4.440;2023-08-24T09:58:24;22.50;99.90
21246;DHT22;10781;50.928;4.440;2023-08-24T10:00:51;22.40;99.90
21246;DHT22;10781;50.928;4.440;2023-08-24T10:03:19;22.20;99.90
21246;DHT22;10781;50.928;4.440;2023-08-24T10:05:50;22.20;99.90
21246;DHT22;10781;50.928;4.440;2023-08-24T10:08:21;22.20;99.90
21246;DHT22;10781;50.928;4.440;2023-08-24T10:10:48;22.20;99.90
21246;DHT22;10781;50.928;4.440;2023-08-24T10:13:23;22.20;99.90
21246;DHT22;10781;50.928;4.440;2023-08-24T10:15:52;22.20;99.90
21246;DHT22;10781;50.928;4.440;2023-08-24T10:18:19;22.00;99.90
21246;DHT22;10781;50.928;4.440;2023-08-24T10:20:46;21.90;99.90
21246;DHT22;10781;50.928;4.440;2023-08-24T10:23:13;21.90;99.90
21246;DHT22;10781;50.928;4.440;2023-08-24T10:25:40;21.90;99.90
21246;DHT22;10781;50.928;4.440;2023-08-24T10:28:07;21.90;99.90
21246;DHT22;10781;50.928;4.440;2023-08-24T10:30:35;21.70;99.90
21246;DHT22;10781;50.928;4.440;2023-08-24T10:33:02;21.50;99.90
21246;DHT22;10781;50.928;4.440;2023-08-24T10:35:28;21.40;99.90
21246;DHT22;10781;50.928;4.440;2023-08-24T10:37:54;21.30;99.90
21246;DHT22;10781;50.928;4.440;2023-08-24T10:40:33;21.10;99.90
21246;DHT22;10781;50.928;4.440;2023-08-24T10:43:02;21.10;99.90
21246;DHT22;10781;50.928;4.440;2023-08-24T10:45:55;21.10;99.90
21246;DHT22;10781;50.928;4.440;2023-08-24T10:48:25;21.20;99.90
21246;DHT22;10781;50.928;4.440;2023-08-24T10:56:12;20.90;99.90
21246;DHT22;10781;50.928;4.440;2023-08-24T10:58:38;21.00;99.90
21246;DHT22;10781;50.928;4.440;2023-08-24T11:01:04;21.10;99.90
21246;DHT22;10781;50.928;4.440;2023-08-24T11:03:34;21.40;99.90
21246;DHT22;10781;50.928;4.440;2023-08-24T11:06:00;21.70;99.90
21246;DHT22;10781;50.928;4.440;2023-08-24T11:08:46;22.00;99.90
21246;DHT22;10781;50.928;4.440;2023-08-24T11:11:22;22.40;99.90
21246;DHT22;10781;50.928;4.440;2023-08-24T11:14:22;22.60;99.90
21246;DHT22;10781;50.928;4.440;2023-08-24T11:16:48;22.90;99.90
21246;DHT22;10781;50.928;4.440;2023-08-24T11:19:15;22.80;99.90
21246;DHT22;10781;50.928;4.440;2023-08-24T11:21:43;22.80;99.90
21246;DHT22;10781;50.928;4.440;2023-08-24T11:24:10;22.70;99.90
21246;DHT22;10781;50.928;4.440;2023-08-24T11:26:45;22.50;99.90
21246;DHT22;10781;50.928;4.440;2023-08-24T11:29:10;22.50;99.90
21246;DHT22;10781;50.928;4.440;2023-08-24T11:31:37;22.70;99.90
21246;DHT22;10781;50.928;4.440;2023-08-24T11:34:04;23.00;99.90
21246;DHT22;10781;50.928;4.440;2023-08-24T11:36:46;23.00;99.90
21246;DHT22;10781;50.928;4.440;2023-08-24T11:39:19;23.10;99.90
21246;DHT22;10781;50.928;4.440;2023-08-24T11:42:01;23.40;99.90
21246;DHT22;10781;50.928;4.440;2023-08-24T11:44:46;23.60;99.90
21246;DHT22;10781;50.928;4.440;2023-08-24T11:47:13;23.80;99.90
21246;DHT22;10781;50.928;4.440;2023-08-24T11:49:38;24.00;99.90
21246;DHT22;10781;50.928;4.440;2023-08-24T11:52:04;24.10;99.90
21246;DHT22;10781;50.928;4.440;2023-08-24T11:54:32;24.30;99.90
21246;DHT22;10781;50.928;4.440;2023-08-24T11:56:58;24.40;99.90
21246;DHT22;10781;50.928;4.440;2023-08-24T11:59:24;24.50;99.90
21246;DHT22;10781;50.928;4.440;2023-08-24T12:01:51;24.60;99.90
21246;DHT22;10781;50.928;4.440;2023-08-24T12:04:18;24.70;99.90
21246;DHT22;10781;50.928;4.440;2023-08-24T12:06:44;24.80;99.90
21246;DHT22;10781;50.928;4.440;2023-08-24T12:09:09;24.90;99.90
21246;DHT22;10781;50.928;4.440;2023-08-24T12:11:36;24.50;99.90
21246;DHT22;10781;50.928;4.440;2023-08-24T12:14:04;23.80;99.90
21246;DHT22;10781;50.928;4.440;2023-08-24T12:16:32;23.60;99.90
21246;DHT22;10781;50.928;4.440;2023-08-24T12:18:59;23.40;99.90
21246;DHT22;10781;50.928;4.440;2023-08-24T12:21:28;23.40;99.90
21246;DHT22;10781;50.928;4.440;2023-08-24T12:24:15;23.20;99.90
21246;DHT22;10781;50.928;4.440;2023-08-24T12:26:40;22.90;99.90
21246;DHT22;10781;50.928;4.440;2023-08-24T12:29:08;22.80;99.90
21246;DHT22;10781;50.928;4.440;2023-08-24T12:31:34;22.40;99.90
21246;DHT22;10781;50.928;4.440;2023-08-24T12:34:01;22.30;99.90
21246;DHT22;10781;50.928;4.440;2023-08-24T12:36:27;22.10;99.90
21246;DHT22;10781;50.928;4.440;2023-08-24T12:38:53;21.90;99.90
21246;DHT22;10781;50.928;4.440;2023-08-24T12:41:19;21.70;99.90
21246;DHT22;10781;50.928;4.440;2023-08-24T12:43:44;21.50;99.90
21246;DHT22;10781;50.928;4.440;2023-08-24T12:46:10;21.60;99.90
21246;DHT22;10781;50.928;4.440;2023-08-24T12:48:35;21.60;99.90
21246;DHT22;10781;50.928;4.440;2023-08-24T12:51:01;21.60;99.90
21246;DHT22;10781;50.928;4.440;2023-08-24T12:53:27;21.60;99.90
21246;DHT22;10781;50.928;4.440;2023-08-24T12:55:52;21.60;99.90
21246;DHT22;10781;50.928;4.440;2023-08-24T12:58:18;21.50;99.90
21246;DHT22;10781;50.928;4.440;2023-08-24T13:00:45;21.40;99.90
21246;DHT22;10781;50.928;4.440;2023-08-24T13:03:11;21.50;99.90
21246;DHT22;10781;50.928;4.440;2023-08-24T13:05:36;21.50;99.90
21246;DHT22;10781;50.928;4.440;2023-08-24T13:08:02;21.50;99.90
21246;DHT22;10781;50.928;4.440;2023-08-24T13:10:28;21.50;99.90
21246;DHT22;10781;50.928;4.440;2023-08-24T13:12:54;21.60;99.90
21246;DHT22;10781;50.928;4.440;2023-08-24T13:15:19;21.60;99.90
21246;DHT22;10781;50.928;4.440;2023-08-24T13:17:46;21.60;99.90
21246;DHT22;10781;50.928;4.440;2023-08-24T13:20:12;21.70;99.90
21246;DHT22;10781;50.928;4.440;2023-08-24T13:22:37;21.70;99.90
21246;DHT22;10781;50.928;4.440;2023-08-24T13:25:03;21.70;99.90
21246;DHT22;10781;50.928;4.440;2023-08-24T13:27:30;21.70;99.90
21246;DHT22;10781;50.928;4.440;2023-08-24T13:29:59;21.60;99.90
21246;DHT22;10781;50.928;4.440;2023-08-24T13:32:25;21.60;99.90
21246;DHT22;10781;50.928;4.440;2023-08-24T13:34:51;21.70;99.90
21246;DHT22;10781;50.928;4.440;2023-08-24T13:37:17;21.70;99.90
21246;DHT22;10781;50.928;4.440;2023-08-24T13:39:43;21.80;99.90
21246;DHT22;10781;50.928;4.440;2023-08-24T13:42:09;21.90;99.90
21246;DHT22;10781;50.928;4.440;2023-08-24T13:44:34;21.70;99.90
21246;DHT22;10781;50.928;4.440;2023-08-24T13:47:00;21.50;99.90
21246;DHT22;10781;50.928;4.440;2023-08-24T13:49:25;21.60;99.90
21246;DHT22;10781;50.928;4.440;2023-08-24T13:51:51;21.50;99.90
21246;DHT22;10781;50.928;4.440;2023-08-24T13:54:18;21.50;99.90
21246;DHT22;10781;50.928;4.440;2023-08-24T13:56:45;21.50;99.90
21246;DHT22;10781;50.928;4.440;2023-08-24T13:59:11;21.60;99.90
21246;DHT22;10781;50.928;4.440;2023-08-24T14:01:37;21.60;99.90
21246;DHT22;10781;50.928;4.440;2023-08-24T14:04:03;21.80;99.90
21246;DHT22;10781;50.928;4.440;2023-08-24T14:06:30;21.90;99.90
21246;DHT22;10781;50.928;4.440;2023-08-24T14:08:58;22.10;99.90
21246;DHT22;10781;50.928;4.440;2023-08-24T14:11:24;22.20;99.90
21246;DHT22;10781;50.928;4.440;2023-08-24T14:13:50;22.40;99.90
21246;DHT22;10781;50.928;4.440;2023-08-24T14:16:16;22.60;99.90
21246;DHT22;10781;50.928;4.440;2023-08-24T14:18:42;22.90;99.90
21246;DHT22;10781;50.928;4.440;2023-08-24T14:21:08;23.00;99.90
21246;DHT22;10781;50.928;4.440;2023-08-24T14:23:35;23.30;99.90
21246;DHT22;10781;50.928;4.440;2023-08-24T14:26:01;23.30;99.90
21246;DHT22;10781;50.928;4.440;2023-08-24T14:28:53;23.50;99.90
21246;DHT22;10781;50.928;4.440;2023-08-24T14:31:21;23.70;99.90
21246;DHT22;10781;50.928;4.440;2023-08-24T14:33:46;23.70;99.90
21246;DHT22;10781;50.928;4.440;2023-08-24T14:36:12;23.90;99.90
21246;DHT22;10781;50.928;4.440;2023-08-24T14:38:41;24.10;99.90
21246;DHT22;10781;50.928;4.440;2023-08-24T14:41:10;24.30;99.90
21246;DHT22;10781;50.928;4.440;2023-08-24T14:43:37;24.50;99.90
21246;DHT22;10781;50.928;4.440;2023-08-24T14:46:03;24.50;99.90
21246;DHT22;10781;50.928;4.440;2023-08-24T14:48:29;24.60;99.90
21246;DHT22;10781;50.928;4.440;2023-08-24T14:50:56;24.80;99.90
21246;DHT22;10781;50.928;4.440;2023-08-24T14:53:25;24.90;99.90
21246;DHT22;10781;50.928;4.440;2023-08-24T14:55:52;25.00;99.90
21246;DHT22;10781;50.928;4.440;2023-08-24T14:58:21;24.90;99.90
21246;DHT22;10781;50.928;4.440;2023-08-24T15:00:47;24.90;99.90
21246;DHT22;10781;50.928;4.440;2023-08-24T15:03:13;25.00;99.90
21246;DHT22;10781;50.928;4.440;2023-08-24T15:08:23;24.90;99.90
21246;DHT22;10781;50.928;4.440;2023-08-24T15:10:50;24.90;99.90
21246;DHT22;10781;50.928;4.440;2023-08-24T15:13:16;24.80;99.90
21246;DHT22;10781;50.928;4.440;2023-08-24T15:15:42;24.60;99.90
21246;DHT22;10781;50.928;4.440;2023-08-24T15:18:10;24.50;99.90
21246;DHT22;10781;50.928;4.440;2023-08-24T15:20:37;24.70;99.90
21246;DHT22;10781;50.928;4.440;2023-08-24T15:23:03;24.80;99.90
21246;DHT22;10781;50.928;4.440;2023-08-24T15:25:28;24.90;99.90
21246;DHT22;10781;50.928;4.440;2023-08-24T15:27:54;24.70;99.90
21246;DHT22;10781;50.928;4.440;2023-08-24T15:30:20;24.90;99.90
21246;DHT22;10781;50.928;4.440;2023-08-24T15:32:45;25.10;99.90
21246;DHT22;10781;50.928;4.440;2023-08-24T15:35:11;25.10;99.90
21246;DHT22;10781;50.928;4.440;2023-08-24T15:37:37;25.30;99.90
21246;DHT22;10781;50.928;4.440;2023-08-24T15:40:05;25.50;99.90
21246;DHT22;10781;50.928;4.440;2023-08-24T15:42:31;25.80;99.90
21246;DHT22;10781;50.928;4.440;2023-08-24T15:44:57;26.20;99.90